createdAt,value
2023-01-19T00:00:33.994Z,100496.75
2023-01-19T00:03:00.660Z,100506.09
2023-01-19T00:05:27.339Z,100486.00
2023-01-19T00:07:53.893Z,100511.75
2023-01-19T00:10:20.381Z,100514.38
2023-01-19T00:12:46.973Z,100522.00
2023-01-19T00:15:13.486Z,100530.50
2023-01-19T00:17:40.127Z,100519.25
2023-01-19T00:20:08.724Z,100529.53
2023-01-19T00:22:35.342Z,100517.38
2023-01-19T00:25:01.889Z,100530.28
2023-01-19T00:27:28.407Z,100535.38
2023-01-19T00:29:55.221Z,100528.41
2023-01-19T00:32:21.872Z,100527.66
2023-01-19T00:34:48.348Z,100523.28
2023-01-19T00:37:15.971Z,100527.50
2023-01-19T00:39:42.582Z,100519.69
2023-01-19T00:42:12.293Z,100522.19
2023-01-19T00:44:38.978Z,100523.81
2023-01-19T00:47:05.531Z,100517.75
2023-01-19T00:49:32.080Z,100511.34
2023-01-19T00:51:58.574Z,100519.13
2023-01-19T00:54:26.894Z,100529.50
2023-01-19T00:56:54.067Z,100522.56
2023-01-19T00:59:20.618Z,100518.19
2023-01-19T01:01:47.176Z,100528.53
2023-01-19T01:04:14.571Z,100531.13
2023-01-19T01:06:41.048Z,100523.44
2023-01-19T01:09:07.626Z,100536.25
2023-01-19T01:11:34.161Z,100528.63
2023-01-19T01:14:00.831Z,100525.16
2023-01-19T01:16:27.634Z,100519.13
2023-01-19T01:18:54.188Z,100528.47
2023-01-19T01:21:20.650Z,100529.31
2023-01-19T01:23:47.245Z,100532.59
2023-01-19T01:26:13.874Z,100527.38
2023-01-19T01:28:40.427Z,100529.88
2023-01-19T01:31:07.047Z,100546.06
2023-01-19T01:33:40.703Z,100551.13
2023-01-19T01:36:09.368Z,100551.88
2023-01-19T01:38:35.953Z,100544.94
2023-01-19T01:41:02.724Z,100556.03
2023-01-19T01:43:52.479Z,100566.22
2023-01-19T01:46:19.109Z,100564.38
2023-01-19T01:49:14.703Z,100573.78
2023-01-19T01:51:51.054Z,100564.22
2023-01-19T01:54:27.048Z,100577.13
2023-01-19T01:56:57.576Z,100575.16
2023-01-19T01:59:28.349Z,100569.16
2023-01-19T02:01:58.175Z,100571.81
2023-01-19T02:04:26.516Z,100573.41
2023-01-19T02:06:53.125Z,100573.53
2023-01-19T02:09:20.241Z,100573.53
2023-01-19T02:11:47.627Z,100572.69
2023-01-19T02:14:14.190Z,100566.63
2023-01-19T02:16:40.762Z,100571.72
2023-01-19T02:19:11.122Z,100565.75
2023-01-19T02:21:46.778Z,100555.09
2023-01-19T02:24:13.890Z,100564.75
2023-01-19T02:26:45.473Z,100564.75
2023-01-19T02:29:15.773Z,100561.28
2023-01-19T02:31:42.612Z,100556.94
2023-01-19T02:34:12.066Z,100566.31
2023-01-19T02:36:58.735Z,100568.00
2023-01-19T02:39:33.481Z,100564.50
2023-01-19T02:42:28.383Z,100561.16
2023-01-19T02:44:56.961Z,100561.06
2023-01-19T02:47:24.271Z,100564.41
2023-01-19T02:49:57.996Z,100565.16
2023-01-19T02:52:25.733Z,100570.94
2023-01-19T02:55:10.792Z,100582.81
2023-01-19T02:57:43.456Z,100581.06
2023-01-19T03:00:31.779Z,100578.41
2023-01-19T03:03:01.826Z,100577.47
2023-01-19T03:05:37.824Z,100587.56
2023-01-19T03:08:30.181Z,100594.25
2023-01-19T03:11:10.440Z,100586.53
2023-01-19T03:13:43.191Z,100583.91
2023-01-19T03:16:16.351Z,100582.09
2023-01-19T03:18:47.108Z,100570.78
2023-01-19T03:21:16.127Z,100582.78
2023-01-19T03:23:45.605Z,100580.09
2023-01-19T03:26:16.683Z,100566.41
2023-01-19T03:28:46.481Z,100573.31
2023-01-19T03:31:18.099Z,100570.50
2023-01-19T03:33:48.429Z,100574.09
2023-01-19T03:36:21.286Z,100564.47
2023-01-19T03:38:50.696Z,100564.47
2023-01-19T03:41:21.997Z,100568.59
2023-01-19T03:43:50.636Z,100569.44
2023-01-19T03:46:19.022Z,100576.28
2023-01-19T03:48:46.590Z,100571.19
2023-01-19T03:51:13.645Z,100561.59
2023-01-19T03:53:40.982Z,100569.22
2023-01-19T03:56:14.060Z,100572.56
2023-01-19T03:58:40.623Z,100569.22
2023-01-19T04:01:07.204Z,100547.44
2023-01-19T04:03:33.850Z,100563.03
2023-01-19T04:06:00.425Z,100572.31
2023-01-19T04:08:26.970Z,100567.72
2023-01-19T04:10:53.500Z,100570.34
2023-01-19T04:13:20.056Z,100571.94
2023-01-19T04:15:46.832Z,100574.53
2023-01-19T04:18:13.414Z,100585.53
2023-01-19T04:20:40.031Z,100582.88
2023-01-19T04:23:06.638Z,100581.94
2023-01-19T04:25:33.268Z,100569.84
2023-01-19T04:27:59.867Z,100586.94
2023-01-19T04:30:26.840Z,100571.31
2023-01-19T04:32:53.793Z,100592.88
2023-01-19T04:35:20.328Z,100559.94
2023-01-19T04:37:46.992Z,100576.66
2023-01-19T04:40:13.558Z,100574.91
2023-01-19T04:42:44.311Z,100581.84
2023-01-19T04:45:12.430Z,100575.97
2023-01-19T04:47:39.389Z,100570.09
2023-01-19T04:50:06.928Z,100570.19
2023-01-19T04:52:34.338Z,100553.00
2023-01-19T04:55:02.176Z,100562.78
2023-01-19T04:57:29.677Z,100562.69
2023-01-19T04:59:57.590Z,100560.25
2023-01-19T05:02:25.344Z,100561.09
2023-01-19T05:04:51.880Z,100565.41
2023-01-19T05:07:18.362Z,100563.63
2023-01-19T05:09:45.065Z,100563.63
2023-01-19T05:12:11.597Z,100563.63
2023-01-19T05:14:38.122Z,100562.63
2023-01-19T05:17:04.704Z,100559.81
2023-01-19T05:19:31.609Z,100566.91
2023-01-19T05:21:58.783Z,100570.34
2023-01-19T05:24:25.580Z,100572.81
2023-01-19T05:26:52.250Z,100557.19
2023-01-19T05:29:18.924Z,100557.19
2023-01-19T05:31:45.839Z,100568.47
2023-01-19T05:34:12.958Z,100575.34
2023-01-19T05:36:39.463Z,100568.47
2023-01-19T05:39:06.181Z,100569.22
2023-01-19T05:41:32.992Z,100571.03
2023-01-19T05:43:59.488Z,100568.47
2023-01-19T05:46:26.149Z,100575.16
2023-01-19T05:48:52.783Z,100566.59
2023-01-19T05:51:19.587Z,100574.19
2023-01-19T05:53:46.117Z,100576.59
2023-01-19T05:56:12.579Z,100561.88
2023-01-19T05:58:39.309Z,100583.34
2023-01-19T06:01:07.122Z,100556.59
2023-01-19T06:03:34.599Z,100579.91
2023-01-19T06:06:01.616Z,100575.59
2023-01-19T06:08:28.650Z,100580.50
2023-01-19T06:10:55.236Z,100578.88
2023-01-19T06:13:21.879Z,100578.69
2023-01-19T06:15:48.561Z,100583.78
2023-01-19T06:18:15.183Z,100571.69
2023-01-19T06:20:41.795Z,100580.28
2023-01-19T06:23:08.403Z,100573.34
2023-01-19T06:25:34.893Z,100567.31
2023-01-19T06:28:01.602Z,100563.88
2023-01-19T06:30:28.208Z,100570.69
2023-01-19T06:32:54.756Z,100563.63
2023-01-19T06:35:21.219Z,100562.59
2023-01-19T06:37:48.900Z,100576.38
2023-01-19T06:40:15.513Z,100583.25
2023-01-19T06:42:42.222Z,100573.78
2023-01-19T06:45:09.576Z,100552.66
2023-01-19T06:47:36.319Z,100568.19
2023-01-19T06:50:02.870Z,100577.66
2023-01-19T06:52:29.397Z,100574.88
2023-01-19T06:54:56.750Z,100565.19
2023-01-19T06:57:23.388Z,100585.97
2023-01-19T06:59:50.132Z,100581.56
2023-01-19T07:02:27.212Z,100590.00
2023-01-19T07:04:55.914Z,100592.31
2023-01-19T07:07:22.434Z,100594.66
2023-01-19T07:09:49.110Z,100589.31
2023-01-19T07:12:20.265Z,100597.72
2023-01-19T07:14:46.723Z,100603.38
2023-01-19T07:17:13.430Z,100602.56
2023-01-19T07:19:40.027Z,100607.50
2023-01-19T07:22:06.773Z,100598.81
2023-01-19T07:24:33.240Z,100603.16
2023-01-19T07:26:59.741Z,100615.91
2023-01-19T07:29:26.236Z,100617.53
2023-01-19T07:31:54.588Z,100621.00
2023-01-19T07:34:21.359Z,100606.44
2023-01-19T07:36:48.792Z,100621.16
2023-01-19T07:39:15.379Z,100620.34
2023-01-19T07:41:42.077Z,100629.69
2023-01-19T07:44:08.651Z,100628.78
2023-01-19T07:46:35.391Z,100621.81
2023-01-19T07:49:01.955Z,100628.81
2023-01-19T07:51:28.670Z,100623.69
2023-01-19T07:53:55.340Z,100620.22
2023-01-19T07:56:21.860Z,100627.97
2023-01-19T07:58:48.505Z,100634.06
2023-01-19T08:01:15.145Z,100623.03
2023-01-19T08:03:41.684Z,100626.63
2023-01-19T08:06:19.424Z,100622.03
2023-01-19T08:08:45.977Z,100631.97
2023-01-19T08:11:12.621Z,100629.31
2023-01-19T08:13:39.392Z,100642.41
2023-01-19T08:16:06.451Z,100644.16
2023-01-19T08:18:33.393Z,100654.59
2023-01-19T08:21:00.195Z,100652.97
2023-01-19T08:23:27.077Z,100665.03
2023-01-19T08:25:54.251Z,100662.56
2023-01-19T08:28:21.357Z,100656.66
2023-01-19T08:30:48.967Z,100671.25
2023-01-19T08:33:15.562Z,100655.06
2023-01-19T08:35:46.787Z,100662.09
2023-01-19T08:38:13.322Z,100647.38
2023-01-19T08:40:41.883Z,100664.81
2023-01-19T08:43:11.661Z,100671.19
2023-01-19T08:45:40.747Z,100667.16
2023-01-19T08:48:07.367Z,100666.28
2023-01-19T08:50:34.856Z,100675.97
2023-01-19T08:53:03.869Z,100666.75
2023-01-19T08:55:30.625Z,100675.59
2023-01-19T08:57:58.395Z,100674.81
2023-01-19T09:00:25.581Z,100680.25
2023-01-19T09:02:52.143Z,100670.00
2023-01-19T09:05:19.022Z,100679.94
2023-01-19T09:07:47.075Z,100677.66
2023-01-19T09:10:14.928Z,100683.97
2023-01-19T09:12:41.732Z,100685.34
2023-01-19T09:15:09.033Z,100689.25
2023-01-19T09:17:35.570Z,100674.56
2023-01-19T09:20:02.470Z,100681.88
2023-01-19T09:22:28.995Z,100677.50
2023-01-19T09:24:55.678Z,100688.91
2023-01-19T09:27:22.283Z,100686.31
2023-01-19T09:29:48.747Z,100676.78
2023-01-19T09:32:15.287Z,100678.28
2023-01-19T09:34:42.041Z,100676.19
2023-01-19T09:37:08.561Z,100672.25
2023-01-19T09:39:37.614Z,100681.19
2023-01-19T09:42:47.619Z,100685.72
2023-01-19T09:45:19.534Z,100687.63
2023-01-19T09:47:48.140Z,100700.56
2023-01-19T09:50:38.591Z,100682.38
2023-01-19T09:53:14.107Z,100691.59
2023-01-19T09:55:42.093Z,100698.03
2023-01-19T09:58:14.538Z,100684.56
2023-01-19T10:00:45.134Z,100696.03
2023-01-19T10:03:16.601Z,100690.19
2023-01-19T10:05:56.948Z,100700.63
2023-01-19T10:08:41.259Z,100703.25
2023-01-19T10:11:51.599Z,100699.06
2023-01-19T10:14:29.411Z,100706.03
2023-01-19T10:17:33.306Z,100708.66
2023-01-19T10:20:03.191Z,100710.41
2023-01-19T10:22:29.782Z,100709.59
2023-01-19T10:25:01.363Z,100718.25
2023-01-19T10:27:31.824Z,100712.19
2023-01-19T10:29:59.225Z,100702.66
2023-01-19T10:32:29.460Z,100710.41
2023-01-19T10:34:56.713Z,100706.94
2023-01-19T10:37:36.927Z,100697.50
2023-01-19T10:40:09.512Z,100703.56
2023-01-19T10:42:38.377Z,100708.72
2023-01-19T10:45:26.865Z,100707.00
2023-01-19T10:47:58.089Z,100705.28
2023-01-19T10:50:30.919Z,100706.06
2023-01-19T10:53:00.245Z,100706.03
2023-01-19T10:55:32.314Z,100698.13
2023-01-19T10:58:00.037Z,100685.03
2023-01-19T11:00:44.751Z,100692.59
2023-01-19T11:03:31.688Z,100697.50
2023-01-19T11:06:13.800Z,100693.75
2023-01-19T11:08:40.561Z,100688.31
2023-01-19T11:11:07.594Z,100673.34
2023-01-19T11:13:35.449Z,100695.53
2023-01-19T11:16:27.502Z,100697.81
2023-01-19T11:18:56.854Z,100700.91
2023-01-19T11:21:26.479Z,100701.47
2023-01-19T11:23:56.982Z,100696.06
2023-01-19T11:26:34.245Z,100702.81
2023-01-19T11:29:05.048Z,100687.22
2023-01-19T11:31:34.493Z,100693.28
2023-01-19T11:34:21.634Z,100686.34
2023-01-19T11:37:01.003Z,100705.38
2023-01-19T11:39:30.946Z,100695.03
2023-01-19T11:42:01.443Z,100694.25
2023-01-19T11:44:30.239Z,100695.06
2023-01-19T11:46:59.540Z,100692.41
2023-01-19T11:49:43.899Z,100693.28
2023-01-19T11:52:26.972Z,100698.44
2023-01-19T11:55:02.697Z,100700.09
2023-01-19T11:57:29.234Z,100693.06
2023-01-19T11:59:55.863Z,100698.16
2023-01-19T12:02:34.892Z,100693.66
2023-01-19T12:05:06.296Z,100685.91
2023-01-19T12:07:36.119Z,100683.25
2023-01-19T12:10:15.810Z,100685.84
2023-01-19T12:12:43.966Z,100699.75
2023-01-19T12:15:29.719Z,100684.47
2023-01-19T12:18:01.016Z,100699.19
2023-01-19T12:20:34.135Z,100684.66
2023-01-19T12:23:25.997Z,100686.47
2023-01-19T12:26:20.576Z,100687.38
2023-01-19T12:28:48.653Z,100694.31
2023-01-19T12:31:17.461Z,100693.47
2023-01-19T12:33:44.485Z,100681.28
2023-01-19T12:36:16.992Z,100690.75
2023-01-19T12:38:52.239Z,100689.84
2023-01-19T12:41:20.885Z,100690.69
2023-01-19T12:44:12.382Z,100694.06
2023-01-19T12:46:49.315Z,100693.13
2023-01-19T12:49:29.797Z,100694.78
2023-01-19T12:52:17.307Z,100693.00
2023-01-19T12:54:56.334Z,100696.47
2023-01-19T12:57:28.394Z,100695.75
2023-01-19T13:00:00.263Z,100684.88
2023-01-19T13:02:26.751Z,100690.31
2023-01-19T13:05:32.666Z,100682.91
2023-01-19T13:08:02.817Z,100691.09
2023-01-19T13:10:51.292Z,100688.84
2023-01-19T13:13:30.238Z,100683.06
2023-01-19T13:16:19.099Z,100691.84
2023-01-19T13:18:50.293Z,100691.97
2023-01-19T13:21:33.195Z,100696.38
2023-01-19T13:24:02.457Z,100699.03
2023-01-19T13:26:32.786Z,100696.50
2023-01-19T13:29:13.739Z,100690.53
2023-01-19T13:31:42.907Z,100685.44
2023-01-19T13:34:14.876Z,100688.91
2023-01-19T13:36:51.895Z,100697.56
2023-01-19T13:39:41.901Z,100688.09
2023-01-19T13:42:17.483Z,100691.59
2023-01-19T13:44:49.513Z,100694.22
2023-01-19T13:47:21.468Z,100697.63
2023-01-19T13:49:55.731Z,100691.59
2023-01-19T13:52:23.603Z,100691.56
2023-01-19T13:55:13.456Z,100682.00
2023-01-19T13:57:44.210Z,100675.00
2023-01-19T14:00:10.897Z,100683.56
2023-01-19T14:02:55.877Z,100682.63
2023-01-19T14:05:31.590Z,100686.91
2023-01-19T14:08:10.386Z,100684.31
2023-01-19T14:11:00.953Z,100689.41
2023-01-19T14:13:35.291Z,100682.47
2023-01-19T14:16:15.446Z,100690.16
2023-01-19T14:18:42.268Z,100684.06
2023-01-19T14:21:14.471Z,100669.31
2023-01-19T14:23:52.973Z,100693.44
2023-01-19T14:26:37.874Z,100696.03
2023-01-19T14:29:49.628Z,100704.56
2023-01-19T14:32:24.329Z,100713.97
2023-01-19T14:34:57.113Z,100726.88
2023-01-19T14:37:45.976Z,100717.28
2023-01-19T14:40:12.595Z,100722.50
2023-01-19T14:42:42.197Z,100729.28
2023-01-19T14:45:38.966Z,100733.44
2023-01-19T14:48:18.489Z,100724.69
2023-01-19T14:50:57.625Z,100724.47
2023-01-19T14:53:30.357Z,100728.66
2023-01-19T14:56:00.751Z,100731.97
2023-01-19T14:58:31.449Z,100738.78
2023-01-19T15:00:58.034Z,100741.31
2023-01-19T15:03:34.938Z,100734.44
2023-01-19T15:06:21.071Z,100747.50
2023-01-19T15:08:48.204Z,100748.38
2023-01-19T15:11:31.163Z,100755.06
2023-01-19T15:13:58.375Z,100753.94
2023-01-19T15:16:26.261Z,100755.53
2023-01-19T15:18:52.892Z,100743.22
2023-01-19T15:21:21.058Z,100757.72
2023-01-19T15:23:47.772Z,100752.28
2023-01-19T15:26:17.741Z,100751.16
2023-01-19T15:28:45.410Z,100762.16
2023-01-19T15:31:16.125Z,100755.94
2023-01-19T15:33:42.695Z,100747.88
2023-01-19T15:36:13.417Z,100770.13
2023-01-19T15:38:40.219Z,100773.34
2023-01-19T15:41:27.076Z,100772.34
2023-01-19T15:43:53.852Z,100768.63
2023-01-19T15:46:21.416Z,100781.50
2023-01-19T15:48:51.211Z,100770.88
2023-01-19T15:51:23.408Z,100781.97
2023-01-19T15:53:50.320Z,100792.09
2023-01-19T15:56:22.574Z,100788.47
2023-01-19T15:58:49.425Z,100789.94
2023-01-19T16:01:20.864Z,100799.25
2023-01-19T16:03:48.091Z,100800.81
2023-01-19T16:06:17.554Z,100803.19
2023-01-19T16:08:44.588Z,100807.28
2023-01-19T16:11:15.852Z,100805.25
2023-01-19T16:13:46.036Z,100808.47
2023-01-19T16:16:18.187Z,100821.19
2023-01-19T16:18:45.600Z,100805.47
2023-01-19T16:21:14.816Z,100797.47
2023-01-19T16:23:42.409Z,100805.09
2023-01-19T16:26:32.832Z,100823.84
2023-01-19T16:29:04.835Z,100820.25
2023-01-19T16:31:31.418Z,100814.09
2023-01-19T16:33:57.991Z,100812.88
2023-01-19T16:36:30.174Z,100825.50
2023-01-19T16:39:09.209Z,100834.81
2023-01-19T16:41:36.649Z,100833.00
2023-01-19T16:44:04.142Z,100824.22
2023-01-19T16:46:34.189Z,100821.44
2023-01-19T16:49:05.849Z,100835.97
2023-01-19T16:51:34.154Z,100828.09
2023-01-19T16:54:00.736Z,100840.72
2023-01-19T16:56:27.579Z,100841.34
2023-01-19T16:58:59.524Z,100848.84
2023-01-19T17:01:29.513Z,100853.84
2023-01-19T17:03:56.592Z,100857.00
2023-01-19T17:06:24.322Z,100836.97
2023-01-19T17:08:52.758Z,100848.94
2023-01-19T17:11:22.320Z,100854.66
2023-01-19T17:13:59.577Z,100859.91
2023-01-19T17:16:28.225Z,100871.72
2023-01-19T17:18:57.110Z,100866.41
2023-01-19T17:21:24.122Z,100869.69
2023-01-19T17:23:52.579Z,100876.28
2023-01-19T17:26:20.030Z,100879.63
2023-01-19T17:28:46.844Z,100863.75
2023-01-19T17:31:22.021Z,100890.34
2023-01-19T17:33:50.227Z,100892.91
2023-01-19T17:36:21.204Z,100900.47
2023-01-19T17:38:52.252Z,100904.66
2023-01-19T17:41:24.989Z,100900.28
2023-01-19T17:43:52.028Z,100898.47
2023-01-19T17:46:20.723Z,100899.94
2023-01-19T17:48:54.820Z,100910.94
2023-01-19T17:51:22.370Z,100914.38
2023-01-19T17:53:49.878Z,100920.22
2023-01-19T17:56:18.545Z,100921.09
2023-01-19T17:58:45.427Z,100914.16
2023-01-19T18:01:15.054Z,100914.91
2023-01-19T18:03:41.909Z,100915.72
2023-01-19T18:06:08.857Z,100908.72
2023-01-19T18:08:38.301Z,100914.75
2023-01-19T18:11:05.113Z,100923.16
2023-01-19T18:13:31.663Z,100930.25
2023-01-19T18:16:03.272Z,100928.34
2023-01-19T18:18:30.108Z,100946.50
2023-01-19T18:21:00.596Z,100939.59
2023-01-19T18:23:28.044Z,100930.91
2023-01-19T18:26:05.903Z,100934.38
2023-01-19T18:28:33.028Z,100935.31
2023-01-19T18:30:59.899Z,100923.16
2023-01-19T18:33:27.202Z,100941.41
2023-01-19T18:35:54.695Z,100936.16
2023-01-19T18:38:21.336Z,100935.91
2023-01-19T18:40:47.792Z,100935.69
2023-01-19T18:43:14.314Z,100934.66
2023-01-19T18:45:40.848Z,100957.75
2023-01-19T18:48:07.841Z,100956.66
2023-01-19T18:50:34.453Z,100956.31
2023-01-19T18:53:00.967Z,100964.06
2023-01-19T18:55:27.732Z,100974.16
2023-01-19T18:57:54.314Z,100963.53
2023-01-19T19:00:21.135Z,100984.03
2023-01-19T19:02:47.630Z,100978.56
2023-01-19T19:05:14.122Z,100988.91
2023-01-19T19:07:40.632Z,100984.53
2023-01-19T19:10:07.730Z,100990.41
2023-01-19T19:12:34.248Z,100986.75
2023-01-19T19:15:00.823Z,100990.19
2023-01-19T19:17:27.345Z,100984.88
2023-01-19T19:19:53.861Z,100984.88
2023-01-19T19:22:20.485Z,100987.38
2023-01-19T19:24:47.172Z,100990.66
2023-01-19T19:27:13.814Z,100989.56
2023-01-19T19:29:41.053Z,100993.94
2023-01-19T19:32:07.580Z,100995.47
2023-01-19T19:34:34.028Z,101003.97
2023-01-19T19:37:01.366Z,101003.03
2023-01-19T19:39:28.790Z,101004.78
2023-01-19T19:41:55.330Z,101010.69
2023-01-19T19:44:21.786Z,101008.00
2023-01-19T19:46:48.440Z,101019.06
2023-01-19T19:49:15.058Z,101009.50
2023-01-19T19:51:41.613Z,101010.44
2023-01-19T19:54:09.091Z,101016.34
2023-01-19T19:56:35.616Z,101017.94
2023-01-19T19:59:02.223Z,101013.53
2023-01-19T20:01:32.971Z,101028.16
2023-01-19T20:04:08.361Z,101031.41
2023-01-19T20:06:35.835Z,101041.75
2023-01-19T20:09:02.400Z,101038.19
2023-01-19T20:11:29.072Z,101039.88
2023-01-19T20:13:55.620Z,101043.25
2023-01-19T20:16:23.391Z,101034.75
2023-01-19T20:18:51.899Z,101044.09
2023-01-19T20:21:21.391Z,101047.59
2023-01-19T20:23:48.797Z,101044.31
2023-01-19T20:26:17.909Z,101050.47
2023-01-19T20:28:45.192Z,101052.31
2023-01-19T20:31:21.431Z,101047.34
2023-01-19T20:33:49.660Z,101052.56
2023-01-19T20:36:17.631Z,101053.53
2023-01-19T20:38:44.635Z,101054.56
2023-01-19T20:41:13.203Z,101053.75
2023-01-19T20:43:40.210Z,101052.00
2023-01-19T20:46:07.139Z,101064.22
2023-01-19T20:48:33.697Z,101071.03
2023-01-19T20:51:01.896Z,101069.31
2023-01-19T20:53:29.449Z,101058.00
2023-01-19T20:55:56.239Z,101067.69
2023-01-19T20:58:23.577Z,101071.72
2023-01-19T21:00:50.471Z,101075.22
2023-01-19T21:03:17.857Z,101072.50
2023-01-19T21:05:46.970Z,101083.56
2023-01-19T21:08:13.440Z,101080.03
2023-01-19T21:10:39.984Z,101073.13
2023-01-19T21:13:06.561Z,101082.41
2023-01-19T21:15:33.019Z,101089.09
2023-01-19T21:17:59.510Z,101087.34
2023-01-19T21:20:26.559Z,101092.47
2023-01-19T21:22:53.136Z,101083.19
2023-01-19T21:25:19.638Z,101093.56
2023-01-19T21:27:46.077Z,101085.19
2023-01-19T21:30:12.670Z,101091.34
2023-01-19T21:32:39.317Z,101095.75
2023-01-19T21:35:06.274Z,101097.66
2023-01-19T21:37:32.762Z,101095.28
2023-01-19T21:39:59.211Z,101103.13
2023-01-19T21:42:25.715Z,101094.72
2023-01-19T21:44:52.160Z,101097.44
2023-01-19T21:47:18.678Z,101105.22
2023-01-19T21:49:45.097Z,101113.81
2023-01-19T21:52:11.590Z,101110.63
2023-01-19T21:54:38.066Z,101107.28
2023-01-19T21:57:05.007Z,101113.34
2023-01-19T21:59:31.479Z,101117.75
2023-01-19T22:01:58.150Z,101117.91
2023-01-19T22:04:24.713Z,101119.66
2023-01-19T22:06:51.154Z,101127.41
2023-01-19T22:09:17.622Z,101117.25
2023-01-19T22:11:44.042Z,101119.88
2023-01-19T22:14:10.521Z,101122.53
2023-01-19T22:16:37.023Z,101128.59
2023-01-19T22:19:03.520Z,101125.25
2023-01-19T22:21:33.265Z,101132.09
2023-01-19T22:24:01.278Z,101137.31
2023-01-19T22:26:29.489Z,101137.41
2023-01-19T22:28:57.524Z,101141.72
2023-01-19T22:31:25.002Z,101143.53
2023-01-19T22:33:52.401Z,101145.38
2023-01-19T22:36:21.957Z,101136.81
2023-01-19T22:38:53.855Z,101148.13
2023-01-19T22:41:26.549Z,101138.66
2023-01-19T22:43:56.103Z,101146.63
2023-01-19T22:46:25.897Z,101144.97
2023-01-19T22:48:53.625Z,101144.25
2023-01-19T22:51:21.459Z,101153.69
2023-01-19T22:53:48.557Z,101150.31
2023-01-19T22:56:17.281Z,101144.28
2023-01-19T22:58:44.844Z,101158.94
2023-01-19T23:01:13.749Z,101153.00
2023-01-19T23:03:40.862Z,101147.06
2023-01-19T23:06:10.230Z,101148.56
2023-01-19T23:08:37.059Z,101156.44
2023-01-19T23:11:10.241Z,101157.19
2023-01-19T23:13:37.289Z,101166.53
2023-01-19T23:16:05.266Z,101167.28
2023-01-19T23:18:32.193Z,101164.69
2023-01-19T23:21:16.099Z,101151.50
2023-01-19T23:23:43.783Z,101159.28
2023-01-19T23:26:14.955Z,101160.09
2023-01-19T23:28:42.077Z,101156.63
2023-01-19T23:31:23.869Z,101162.47
2023-01-19T23:33:51.123Z,101160.72
2023-01-19T23:36:20.412Z,101168.28
2023-01-19T23:38:52.082Z,101166.38
2023-01-19T23:41:19.054Z,101168.09
2023-01-19T23:43:45.903Z,101173.09
2023-01-19T23:46:13.764Z,101172.13
2023-01-19T23:48:40.306Z,101173.72
2023-01-19T23:51:09.067Z,101170.84
2023-01-19T23:53:36.431Z,101181.22
2023-01-19T23:56:15.069Z,101172.38
2023-01-19T23:58:41.692Z,101180.97
